Terminal Aerodrome Forecast
Issued by NWS

Home | Current Version | Previous Version | Text Only | Print | Product List | Glossary On
Versions: 1 2 3 4 5 6 7 8 9 10 11 12 13 14 15 16 17 18 19 20 21 22 23 24 25 26 27 28 29 30 31 32 33 34 35 36 37 38
000
FTUS41 KRNK 051129
TAFBCB
TAF
KBCB 051129Z 0512/0612 07004KT 5SM BR OVC015
      TEMPO 0512/0514 2SM BR
     FM051400 08007KT 6SM HZ OVC023
     FM051800 08008KT 6SM HZ OVC027
     FM060400 07005KT 5SM BR OVC015=

USA.gov is the U.S. government's official web portal to all federal, state and local government web resources and services.